Latest Weather Observations for Adelaide (Kent Town)

IDS60901

Issued at 9:31 pm CST Monday 22 April 2019 (issued every 10 minutes, with the page automatically refreshed every 10 minutes)

About weather observations | Map of Adelaide area stations | Latest observations for Adelaide area | Other Formats
Station Details ID: 023090 Name: KENT TOWN Lat: -34.92 Lon: 138.62 Height: 48.0 m
Data from the previous 72 hours. | See also: Recent months at Adelaide (Kent Town)
Date/Time
CST
Temp
°C
App
Temp
°C
Dew
Point
°C
Rel
Hum
%
Delta-T
°C
Wind Press
QNH
hPa
Press
MSL
hPa
Rain since
9am
mm
Dir  Spd
km/h
Gust
km/h
Spd
kts
Gust
kts
22/09:30pm 14.4 11.8 6.2 58 3.9 ESE 9 13 5 7 1028.2 1028.1 0.0
22/09:00pm 14.5 12.0 6.6 59 3.8 SE 9 24 5 13 1028.2 1028.1 0.0
22/08:30pm 14.5 12.0 6.6 59 3.8 SSE 9 19 5 10 1028.3 1028.2 0.0
22/08:00pm 14.6 12.5 6.7 59 3.8 SE 7 13 4 7 1028.1 1028.0 0.0
22/07:30pm 14.9 12.9 6.9 58 3.9 SSE 7 17 4 9 1028.1 1028.0 0.0
22/07:00pm 15.3 12.7 6.1 54 4.4 S 9 17 5 9 1027.9 1027.8 0.0
22/06:30pm 15.7 13.1 5.9 52 4.7 S 9 20 5 11 1027.5 1027.4 0.0
22/06:00pm 16.1 13.6 6.4 52 4.7 S 9 17 5 9 1027.2 1027.1 0.0
22/05:30pm 16.9 13.7 6.7 51 5.0 SSE 13 22 7 12 1026.7 1026.6 0.0
22/05:00pm 17.8 15.2 5.9 45 5.8 SSE 9 20 5 11 1026.2 1026.1 0.0
22/04:30pm 18.3 15.2 5.5 43 6.2 SSE 11 20 6 11 1025.8 1025.7 0.0
22/04:00pm 18.7 14.8 5.3 41 6.5 SSE 15 26 8 14 1025.7 1025.6 0.0
22/03:30pm 19.8 16.6 5.2 38 7.1 S 11 20 6 11 1025.5 1025.4 0.0
22/03:00pm 20.2 16.9 4.7 36 7.5 SSW 11 19 6 10 1025.5 1025.4 0.0
22/02:30pm 19.8 15.7 4.4 36 7.4 SSE 15 24 8 13 1025.4 1025.3 0.0
22/02:00pm 20.2 16.5 4.4 35 7.6 S 13 22 7 12 1025.4 1025.3 0.0
22/01:30pm 19.9 16.6 4.5 36 7.4 SSW 11 20 6 11 1025.7 1025.6 0.0
22/01:00pm 19.8 16.1 4.7 37 7.3 SW 13 20 7 11 1026.0 1025.9 0.0
22/12:30pm 19.1 16.5 4.1 37 7.1 SSW 7 13 4 7 1026.2 1026.1 0.0
22/12:00pm 19.8 16.8 4.1 35 7.5 SSW 9 19 5 10 1026.6 1026.5 0.0
22/11:30am 19.0 15.4 2.7 33 7.5 S 11 19 6 10 1027.1 1027.0 0.0
22/11:00am 18.8 15.0 4.0 37 7.0 SW 13 20 7 11 1027.5 1027.4 0.0
22/10:30am 17.4 14.4 4.2 41 6.2 SW 9 19 5 10 1027.5 1027.4 0.0
22/10:00am 18.0 15.1 4.8 41 6.3 S 9 19 5 10 1027.6 1027.5 0.0
22/09:30am 16.9 14.2 5.7 47 5.4 SSW 9 19 5 10 1027.5 1027.4 0.0
22/09:00am 16.9 15.1 7.0 52 4.9 S 6 11 3 6 1027.4 1027.3 0.0
22/08:30am 14.6 14.0 7.5 62 3.5 CALM 0 0 0 0 1027.2 1027.1 0.0
22/08:00am 11.9 11.5 8.2 78 1.8 CALM 0 0 0 0 1027.0 1026.9 0.0
22/07:30am 10.2 9.7 7.7 84 1.2 CALM 0 6 0 3 1026.7 1026.6 0.0
22/07:00am 9.8 9.2 7.5 85 1.1 CALM 0 0 0 0 1026.2 1026.1 0.0
22/06:30am 10.0 9.4 7.5 84 1.2 CALM 0 0 0 0 1026.0 1025.9 0.0
22/06:00am 10.4 9.9 7.7 83 1.3 CALM 0 0 0 0 1026.0 1025.9 0.0
22/05:30am 10.6 10.1 7.7 82 1.4 CALM 0 0 0 0 1025.9 1025.8 0.0
22/05:00am 10.7 10.2 7.8 82 1.4 CALM 0 0 0 0 1025.7 1025.6 0.0
22/04:30am 10.9 10.4 7.8 81 1.5 CALM 0 0 0 0 1025.5 1025.4 0.0
22/04:00am 11.1 10.6 8.0 81 1.5 CALM 0 0 0 0 1025.1 1025.0 0.0
22/03:30am 11.5 11.0 8.0 79 1.7 CALM 0 7 0 4 1024.9 1024.8 0.0
22/03:00am 11.2 10.7 7.9 80 1.6 CALM 0 0 0 0 1025.0 1024.9 0.0
22/02:30am 11.8 10.9 7.9 77 1.9 SE 2 6 1 3 1025.0 1024.9 0.0
22/02:00am 12.2 11.3 7.9 75 2.1 S 2 6 1 3 1024.9 1024.8 0.0
22/01:30am 11.9 11.4 7.8 76 2.0 CALM 0 6 0 3 1025.0 1024.9 0.0
22/01:00am 12.2 11.7 7.7 74 2.2 CALM 0 6 0 3 1025.0 1024.9 0.0
22/12:30am 12.5 11.6 7.6 72 2.4 SW 2 6 1 3 1024.9 1024.8 0.0
22/12:00am 13.0 12.4 7.4 69 2.7 CALM 0 0 0 0 1024.8 1024.7 0.0
 
Date/Time
CST
Temp
°C
App
Temp
°C
Dew
Point
°C
Rel
Hum
%
Delta-T
°C
Wind Press
QNH
hPa
Press
MSL
hPa
Rain since
9am
mm
Dir  Spd
km/h
Gust
km/h
Spd
kts
Gust
kts
21/11:30pm 13.6 11.7 7.5 66 3.0 S 7 9 4 5 1024.7 1024.6 0.0
21/11:00pm 13.6 11.9 7.7 67 2.9 SSW 6 17 3 9 1024.5 1024.4 0.0
21/10:30pm 13.8 12.2 7.9 67 2.9 SW 6 9 3 5 1024.7 1024.6 0.0
21/10:00pm 13.7 12.6 8.3 70 2.7 SW 4 11 2 6 1024.5 1024.4 0.0
21/09:30pm 14.0 13.3 8.4 69 2.8 SW 2 7 1 4 1024.7 1024.6 0.0
21/09:00pm 14.6 13.0 8.0 64 3.3 SSW 6 13 3 7 1024.4 1024.3 0.0
21/08:30pm 15.0 12.8 8.0 63 3.5 S 9 17 5 9 1024.2 1024.1 0.0
21/08:00pm 15.4 13.2 7.8 60 3.8 S 9 15 5 8 1024.0 1023.9 0.0
21/07:30pm 15.9 13.8 8.2 60 3.9 SSE 9 17 5 9 1023.8 1023.7 0.0
21/07:00pm 16.4 14.9 9.2 62 3.7 SSW 7 15 4 8 1023.5 1023.4 0.0
21/06:30pm 16.6 15.4 9.5 63 3.7 SW 6 11 3 6 1022.8 1022.7 0.0
21/06:00pm 16.9 14.7 9.4 61 3.9 WSW 11 19 6 10 1022.7 1022.6 0.0
21/05:30pm 17.7 15.0 7.3 50 5.2 WSW 11 19 6 10 1022.2 1022.1 0.0
21/05:00pm 18.5 16.0 8.2 51 5.3 W 11 17 6 9 1022.0 1021.9 0.0
21/04:30pm 18.4 16.2 7.8 50 5.4 WSW 9 17 5 9 1021.6 1021.5 0.0
21/04:00pm 19.0 16.6 6.8 45 6.1 SW 9 17 5 9 1021.2 1021.1 0.0
21/03:30pm 19.1 16.9 8.0 48 5.7 WSW 9 13 5 7 1021.0 1020.9 0.0
21/03:00pm 19.4 17.7 8.4 49 5.7 SW 7 17 4 9 1021.1 1021.0 0.0
21/02:30pm 19.2 17.1 8.1 48 5.7 SSW 9 22 5 12 1020.9 1020.8 0.0
21/02:00pm 19.8 17.4 8.5 48 5.9 WSW 11 17 6 9 1020.9 1020.8 0.0
21/01:30pm 19.4 15.8 6.9 44 6.3 W 15 24 8 13 1020.8 1020.7 0.0
21/01:00pm 19.9 17.4 8.3 47 6.0 WSW 11 20 6 11 1020.7 1020.6 0.0
21/12:30pm 19.9 16.1 7.6 45 6.3 W 17 24 9 13 1021.1 1021.0 0.0
21/12:00pm 18.4 15.1 9.7 57 4.6 WSW 17 24 9 13 1021.1 1021.0 0.0
21/11:30am 18.1 14.7 9.3 56 4.6 WSW 17 26 9 14 1021.6 1021.5 0.0
21/11:00am 18.5 16.2 10.3 59 4.4 WSW 13 22 7 12 1021.2 1021.1 0.0
21/10:30am 17.5 15.5 11.4 67 3.3 W 13 20 7 11 1021.0 1020.9 0.0
21/10:00am 18.1 15.6 11.1 63 3.8 WNW 15 26 8 14 1021.4 1021.3 0.0
21/09:30am 17.0 16.3 11.9 72 2.8 WSW 7 15 4 8 1020.7 1020.6 0.0
21/09:00am 15.9 15.4 12.2 78 2.0 NNW 6 11 3 6 1020.9 1020.8 0.2
21/08:30am 15.2 14.7 12.1 82 1.7 NW 6 9 3 5 1020.5 1020.4 0.2
21/08:00am 14.9 13.9 12.3 84 1.4 WSW 9 17 5 9 1019.7 1019.7 0.2
21/07:30am 16.1 13.9 10.8 71 2.8 W 13 19 7 10 1020.2 1020.1 0.0
21/07:00am 16.3 13.8 9.6 64 3.5 WSW 13 26 7 14 1018.7 1018.7 0.0
21/06:30am 16.4 14.1 10.6 68 3.1 W 13 20 7 11 1019.1 1019.1 0.0
21/06:00am 16.6 14.4 10.8 68 3.1 W 13 24 7 13 1019.0 1019.0 0.0
21/05:30am 17.1 15.1 12.6 75 2.5 W 15 24 8 13 1018.3 1018.2 0.0
21/05:00am 17.7 16.3 13.3 75 2.5 W 13 22 7 12 1017.8 1017.7 0.0
21/04:30am 18.0 16.4 12.8 71 2.9 W 13 24 7 13 1018.2 1018.1 0.0
21/04:00am 18.5 16.5 12.8 69 3.2 W 15 30 8 16 1017.8 1017.7 0.0
21/03:30am 18.8 18.8 13.7 72 2.9 W 6 9 3 5 1017.0 1016.9 0.0
21/03:00am 18.8 19.1 13.5 71 3.0 WSW 4 9 2 5 1016.4 1016.3 0.0
21/02:30am 18.6 20.0 14.3 76 2.5 CALM 0 6 0 3 1016.3 1016.2 0.0
21/02:00am 18.7 18.9 14.6 77 2.4 SW 7 15 4 8 1016.6 1016.5 0.0
21/01:30am 18.9 18.7 14.6 76 2.5 SW 9 17 5 9 1016.9 1016.8 0.0
21/01:00am 19.1 18.8 15.4 79 2.2 SSW 11 24 6 13 1016.6 1016.5 0.0
21/12:30am 19.6 18.1 16.3 81 2.0 W 19 35 10 19 1016.6 1016.5 0.0
21/12:00am 20.3 17.6 15.6 74 2.8 W 24 43 13 23 1015.8 1015.7 0.0
 
Date/Time
CST
Temp
°C
App
Temp
°C
Dew
Point
°C
Rel
Hum
%
Delta-T
°C
Wind Press
QNH
hPa
Press
MSL
hPa
Rain since
9am
mm
Dir  Spd
km/h
Gust
km/h
Spd
kts
Gust
kts
20/11:51pm 21.3 18.3 14.9 67 3.8 W 24 43 13 23 1015.2 1015.1 0.0
20/11:30pm 26.3 22.5 1.8 20 11.8 NNE 11 37 6 20 1013.5 1013.4 0.0
20/11:00pm 26.1 22.7 2.1 21 11.6 NNE 9 20 5 11 1012.8 1012.7 0.0
20/10:30pm 26.2 22.9 2.3 21 11.6 NE 9 15 5 8 1013.0 1012.9 0.0
20/10:00pm 26.4 22.6 1.6 20 11.9 NNE 11 20 6 11 1013.2 1013.1 0.0
20/09:30pm 26.8 22.4 0.1 17 12.5 NNE 13 26 7 14 1013.1 1013.0 0.0
20/09:00pm 26.9 22.5 0.4 17 12.5 NE 13 24 7 13 1013.2 1013.1 0.0
20/08:30pm 25.9 23.0 2.8 22 11.3 NE 7 15 4 8 1013.3 1013.2 0.0
20/08:00pm 25.5 22.7 3.4 24 10.9 NE 7 13 4 7 1013.5 1013.4 0.0
20/07:30pm 25.5 23.0 4.0 25 10.7 ENE 6 11 3 6 1013.3 1013.2 0.0
20/07:00pm 25.0 24.2 6.5 30 9.6 CALM 0 0 0 0 1013.4 1013.3 0.0
20/06:30pm 25.5 25.1 8.4 33 9.2 CALM 0 0 0 0 1013.5 1013.4 0.0
20/06:00pm 26.7 24.4 5.9 26 10.8 N 7 13 4 7 1013.2 1013.1 0.0
20/05:30pm 27.7 24.7 4.3 22 11.9 NW 9 20 5 11 1013.1 1013.0 0.0
20/05:00pm 29.0 26.1 4.8 21 12.5 NW 9 15 5 8 1013.0 1012.9 0.0
20/04:30pm 30.8 27.5 2.2 16 14.3 NNW 9 19 5 10 1012.9 1012.8 0.0
20/04:00pm 30.5 27.4 3.4 18 13.8 NNW 9 15 5 8 1013.2 1013.1 0.0
20/03:30pm 31.1 27.2 3.2 17 14.2 NW 13 24 7 13 1013.8 1013.7 0.0
20/03:00pm 31.6 27.7 3.2 16 14.5 NW 13 30 7 16 1014.1 1014.0 0.0
20/02:30pm 30.9 27.3 3.1 17 14.1 NW 11 26 6 14 1014.3 1014.2 0.0
20/02:00pm 31.7 26.8 -0.3 13 15.4 NNW 15 30 8 16 1014.6 1014.5 0.0
20/01:30pm 31.0 25.9 0.6 14 14.8 N 17 35 9 19 1015.0 1014.9 0.0
20/01:00pm 31.1 25.3 -0.1 13 15.0 N 20 35 11 19 1015.5 1015.4 0.0
20/12:30pm 30.9 25.8 0.7 14 14.7 N 17 33 9 18 1016.0 1015.9 0.0
20/12:00pm 30.6 24.9 0.8 14 14.5 N 20 39 11 21 1016.8 1016.7 0.0
20/11:30am 30.9 25.1 0.2 14 14.8 NNW 20 41 11 22 1017.4 1017.3 0.0
20/11:00am 31.0 25.5 1.7 15 14.5 N 20 37 11 20 1017.9 1017.8 0.0
20/10:30am 30.0 25.2 2.5 17 13.7 N 17 30 9 16 1018.2 1018.1 0.0
20/10:00am 29.2 24.3 1.9 17 13.4 N 17 30 9 16 1018.6 1018.5 0.0
20/09:30am 28.9 23.5 1.2 16 13.4 NNE 19 35 10 19 1019.1 1019.1 0.0
20/09:00am 28.2 24.2 2.7 19 12.6 NNE 13 22 7 12 1019.3 1019.3 0.0
20/08:30am 27.2 23.3 3.2 21 11.9 NE 13 22 7 12 1019.3 1019.3 0.0
20/08:00am 25.9 22.6 2.7 22 11.3 NE 9 22 5 12 1019.0 1019.0 0.0
20/07:30am 24.5 21.9 4.1 26 10.1 NE 7 13 4 7 1018.7 1018.7 0.0
20/07:00am 24.1 21.7 4.3 27 9.8 ENE 6 13 3 7 1018.4 1018.3 0.0
20/06:30am 23.5 21.3 5.1 30 9.2 ENE 6 11 3 6 1018.3 1018.2 0.0
20/06:00am 22.5 20.3 5.3 32 8.6 ENE 6 15 3 8 1018.3 1018.2 0.0
20/05:30am 20.7 19.5 6.4 39 7.2 NE 2 6 1 3 1018.1 1018.0 0.0
20/05:00am 20.9 19.8 6.7 39 7.2 E 2 7 1 4 1017.9 1017.8 0.0
20/04:30am 19.8 19.4 8.2 47 6.0 CALM 0 0 0 0 1017.9 1017.8 0.0
20/04:00am 21.4 20.3 6.9 39 7.4 E 2 6 1 3 1017.9 1017.8 0.0
20/03:30am 21.1 20.7 8.3 43 6.7 CALM 0 0 0 0 1018.1 1018.0 0.0
20/03:00am 21.1 19.2 6.5 38 7.4 NNE 6 9 3 5 1018.1 1018.0 0.0
20/02:30am 19.9 19.5 8.1 46 6.1 CALM 0 6 0 3 1018.2 1018.1 0.0
20/02:00am 20.1 19.7 8.4 47 6.1 CALM 0 0 0 0 1018.5 1018.4 0.0
20/01:30am 21.3 20.9 8.3 43 6.8 CALM 0 0 0 0 1018.8 1018.8 0.0
20/01:00am 22.5 21.5 7.2 37 7.9 NNE 2 7 1 4 1018.8 1018.8 0.0
20/12:30am 23.5 21.9 6.3 33 8.8 NE 4 9 2 5 1019.0 1019.0 0.0
20/12:00am 22.6 21.9 7.1 36 8.0 CALM 0 7 0 4 1019.1 1019.1 0.0
 
Date/Time
CST
Temp
°C
App
Temp
°C
Dew
Point
°C
Rel
Hum
%
Delta-T
°C
Wind Press
QNH
hPa
Press
MSL
hPa
Rain since
9am
mm
Dir  Spd
km/h
Gust
km/h
Spd
kts
Gust
kts
19/11:30pm 22.9 21.9 7.3 36 8.1 ENE 2 7 1 4 1019.3 1019.3 0.0
19/11:00pm 23.7 21.6 6.0 32 9.0 NNE 6 7 3 4 1019.6 1019.6 0.0
19/10:30pm 23.8 23.3 7.9 36 8.4 CALM 0 0 0 0 1019.8 1019.8 0.0
19/10:00pm 24.2 22.3 6.9 33 9.0 E 6 11 3 6 1019.8 1019.8 0.0

Latest Capital City Observations: Canberra | Sydney | Melbourne | Brisbane | Adelaide | Perth | Hobart | Darwin

Other formats

Comma delimited format used in spreadsheet applications
http://www.bom.gov.au/fwo/IDS60901/IDS60901.94675.axf

JavaScript Object Notation format (JSON) in row-major order
http://www.bom.gov.au/fwo/IDS60901/IDS60901.94675.json

Data quality

Most of these data are generated automatically and are frequently updated. Quality checks on data are not normally performed. It is possible for incorrect values to appear. Refer to information at About Latest Weather Observations and please check the disclaimer before using these data.